TFFR/PTP METAR and TAF weather

Enter ICAO airport designator
Station Type Date Time Source
TFFR METAR 2020/09/19 21:30 UTC NOAA

TFFR 192130Z AUTO 22004KT 180V250 9999 ///CB 29/24 Q1010 BECMG SCT020 SCT040


Station Type Date Time Source
TFFR Decoded METAR 2020/09/19 21:30 UTC NOAA

Le Raizet, Guadeloupe, Guadeloupe (TFFR) 16-16N 061-31W 11M
Sep 19, 2020 - 05:30 PM EDT / 2020.09.19 2130 UTC
Wind: from the SW (220 degrees) at 5 MPH (4 KT) (direction variable):0
Visibility: greater than 7 mile(s):0
Weather: Cumulonimbus clouds observed
Temperature: 84 F (29 C)
Dew Point: 75 F (24 C)
Relative Humidity: 74%
Pressure (altimeter): 29.83 in. Hg (1010 hPa)
ob: TFFR 192130Z AUTO 22004KT 180V250 9999 ///CB 29/24 Q1010 BECMG SCT020 SCT040
cycle: 21

Station Type Date Time Source
TFFR TAF 2020/09/19 18:59 UTC NOAA

TAF TFFR 191700Z 1918/2018 19010KT 9999 SCT020 SCT040 PROB40
TEMPO 1919/1922 30010KT
TEMPO 1918/1921 3000 SHRA FEW011CB SCT016TCU
BECMG 1922/1924 VRB02KT PROB30
TEMPO 2009/2018 3000 SHRA FEW013CB SCT020TCU
BECMG 2012/2014 19010KT PROB30
TEMPO 2014/2018 1000 TSRA SCT010CB BKN015TCU

Example: see airport list